Thursday, August 16, 2018, 1:55 AM EDT
Back to Local

KART, Watertown International Airport

Location: Dexter, NY, United States Lat: 43.983
Local Time: 1:55 AM EDT ( 5:55 GMT) Lon: -76.033
Time Zone: US/Eastern Elev: 324 ft

Show me the last for .
Show Decoded

2018-08-16 01:23 METAR KART 160523Z AUTO 00000KT 2SM BR FEW045 20/20 A2995 RMK AO2 T02000200 =
2018-08-16 00:56 METAR KART 160456Z AUTO 00000KT 4SM BR FEW045 21/21 A2995 RMK AO2 RAE01 SLP136
                 P0000 T02110206 402830194 =
2018-08-15 23:56 METAR KART 160356Z AUTO 21003KT 4SM -RA BR FEW048 SCT070 BKN100 21/21 A2994 RMK
                 AO2 RAE01B51 SLP134 P0000 T02060206 =
2018-08-15 22:56 METAR KART 160256Z AUTO 00000KT 6SM -RA BR FEW065 SCT090 BKN110 21/21 A2995 RMK
                 AO2 RAB47 SLP137 P0000 60000 T02110206 51012 =
2018-08-15 22:40 METAR KART 160240Z AUTO 15004KT 6SM BR FEW075 BKN110 21/21 A2996 RMK AO2
                 T02110206 =
2018-08-15 22:10 METAR KART 160210Z AUTO 01006KT 5SM VCTS BR SCT070 SCT090 OVC120 21/21 A2997 RMK
                 AO2 LTG DSNT W-NE PRESRR T02110211 =
2018-08-15 21:56 METAR KART 160156Z AUTO 00000KT 7SM SCT085 BKN120 21/21 A2995 RMK AO2 LTG DSNT N
                 AND NW TSB37E52 SLP136 T02110211 =
2018-08-15 21:43 METAR KART 160143Z AUTO 23003KT 5SM TS BR BKN085 BKN120 21/21 A2995 RMK AO2 LTG
                 DSNT N AND NW TSB37 T02110211 =
2018-08-15 21:35 METAR KART 160135Z AUTO 00000KT 5SM VCTS BR SCT080 BKN110 21/21 A2995 RMK AO2
                 LTG DSNT N AND NW T02110211 =
2018-08-15 20:56 METAR KART 160056Z AUTO 00000KT 6SM BR FEW110 22/21 A2994 RMK AO2 LTG DSNT NW
                 RAB2359E13 SLP132 P0000 T02170211 =
2018-08-15 20:25 METAR KART 160025Z AUTO 26003KT 5SM BR FEW039 23/22 A2993 RMK AO2 LTG DSNT NW
                 RAB2359E13 P0000 T02280222 =
2018-08-15 19:56 METAR KART 152356Z AUTO 00000KT 2SM BR FEW060 BKN100 23/23 A2992 RMK AO2 LTG
                 DSNT NW RAE47 SLP126 P0002 60005 T02330228 10283 20228 53006 =
2018-08-15 19:43 METAR KART 152343Z AUTO 26004KT 2 1/2SM -RA BR FEW055 BKN110 23/23 A2991 RMK AO2
                 LTG DSNT NW P0002 T02330228 =
2018-08-15 19:22 METAR KART 152322Z AUTO 21007KT 1 3/4SM -RA BR BKN110 23/23 A2991 RMK AO2 LTG
                 DSNT S AND W P0001 T02330228 =
2018-08-15 19:13 METAR KART 152313Z AUTO 20006KT 2SM -RA BR BKN120 23/23 A2990 RMK AO2 LTG DSNT
                 ALQDS P0001 T02330228 =
2018-08-15 18:56 METAR KART 152256Z AUTO 16005KT 1 1/4SM VCTS -RA BR SCT120 23/23 A2990 RMK AO2
                 LTG DSNT NE AND E RAE31B53 TSE2158B01E31 SLP121 P0000 T02280228 =
2018-08-15 18:37 METAR KART 152237Z AUTO 00000KT 2SM VCTS BR FEW016 SCT040 SCT050 23/23 A2991 RMK
                 AO2 LTG DSNT NW-E RAE31 TSE2158B01E31 P0000 T02330228 =
2018-08-15 17:56 METAR KART 152156Z AUTO 00000KT 2SM -TSRA BR SCT040 BKN055 BKN090 23/23 A2991
                 RMK AO2 LTG DSNT NW-NE RAB22 TSB38 SLP122 P0003 T02330228 =
2018-08-15 17:44 METAR KART 152144Z AUTO 00000KT 2SM -TSRA BR SCT090 BKN110 24/23 A2991 RMK AO2
                 LTG DSNT W-NE RAB22 TSB38 P0002 T02390228 =
2018-08-15 17:34 METAR KART 152134Z AUTO 22004KT 2 1/2SM VCTS -RA BR SCT110 24/22 A2990 RMK AO2
                 LTG DSNT W-NE RAB22 P0001 T02390222 =
2018-08-15 16:56 METAR KART 152056Z AUTO 24005KT 4SM VCTS HZ FEW110 25/22 A2990 RMK AO2 LTG DSNT
                 W-N SLP120 T02500222 55001 =
2018-08-15 15:56 METAR KART 151956Z AUTO 25009KT 5SM HZ CLR 28/22 A2988 RMK AO2 SLP114 T02780222
                 =
2018-08-15 14:56 METAR KART 151856Z AUTO 23011KT 5SM HZ CLR 27/22 A2990 RMK AO2 SLP119 T02720217
                 =
2018-08-15 13:56 METAR KART 151756Z AUTO 22013G17KT 6SM HZ FEW020 28/22 A2990 RMK AO2 SLP120
                 T02780222 10278 20217 53004 =
2018-08-15 12:56 METAR KART 151656Z AUTO 25010G17KT 5SM HZ FEW018 27/22 A2990 RMK AO2 SLP118
                 T02720222 =
2018-08-15 12:48 METAR KART 151648Z AUTO 23011KT 5SM HZ SCT018 27/22 A2990 RMK AO2 T02670222 =
2018-08-15 12:19 METAR KART 151619Z AUTO 26012KT 5SM HZ BKN018 27/22 A2989 RMK AO2 T02670222 =
2018-08-15 12:10 METAR KART 151610Z AUTO 26012KT 5SM HZ SCT018 27/22 A2989 RMK AO2 T02720222 =
2018-08-15 11:56 METAR KART 151556Z AUTO 25009KT 5SM HZ BKN018 26/22 A2989 RMK AO2 SLP115
                 T02610222 =
2018-08-15 10:56 METAR KART 151456Z AUTO 25011KT 5SM HZ BKN019 26/22 A2989 RMK AO2 SLP116
                 T02560217 53005 =
2018-08-15 09:56 METAR KART 151356Z AUTO 24009KT 6SM HZ CLR 25/21 A2988 RMK AO2 SLP113 T02500211
                 =
2018-08-15 08:56 METAR KART 151256Z AUTO 22004KT 6SM HZ CLR 24/22 A2988 RMK AO2 SLP113 T02440217
                 =
2018-08-15 07:56 METAR KART 151156Z AUTO 21003KT 5SM BR CLR 22/21 A2988 RMK AO2 SLP112 70047
                 T02170206 10217 20194 53016 =
2018-08-15 06:56 METAR KART 151056Z AUTO 17003KT 3SM BR CLR 19/19 A2986 RMK AO2 SLP108 T01940194
                 =
2018-08-15 05:56 METAR KART 150956Z AUTO 20005KT 4SM BR CLR 19/19 A2983 RMK AO2 SLP098 T01940194
                 =
2018-08-15 04:56 METAR KART 150856Z AUTO 19004KT 3SM BR CLR 20/20 A2983 RMK AO2 SLP095 T02000200
                 58001 =
2018-08-15 03:56 METAR KART 150756Z AUTO 21004KT 3SM BR CLR 20/20 A2983 RMK AO2 SLP096 T02000200
                 =
2018-08-15 02:56 METAR KART 150656Z AUTO VRB03KT 5SM BR CLR 20/20 A2983 RMK AO2 SLP095 T02000200
                 =
2018-08-15 02:08 METAR KART 150608Z AUTO 00000KT 4SM BR CLR 20/20 A2983 RMK AO2 T02000200 =
2018-08-15 02:05 METAR KART 150605Z AUTO 00000KT 1SM BR CLR 20/20 A2983 RMK AO2 T02000200 =
2018-08-15 01:56 METAR KART 150556Z AUTO 00000KT 1/4SM FG CLR 19/19 A2983 RMK AO2 SLP097 60001
                 T01940194 10239 20194 50001 =

Support USWX by starting your Amazon purchase here.